sensor_id;sensor_type;location;lat;lon;timestamp;pressure;altitude;pressure_sealevel;temperature;humidity
13705;BME280;6924;52.122;9.952;2023-03-21T00:01:34;100656.34;;;7.84;99.74
13705;BME280;6924;52.122;9.952;2023-03-21T00:04:00;100649.88;;;7.83;99.76
13705;BME280;6924;52.122;9.952;2023-03-21T00:06:27;100648.16;;;7.88;99.50
13705;BME280;6924;52.122;9.952;2023-03-21T00:08:53;100649.53;;;7.90;99.69
13705;BME280;6924;52.122;9.952;2023-03-21T00:11:20;100646.16;;;7.88;99.40
13705;BME280;6924;52.122;9.952;2023-03-21T00:13:48;100643.69;;;7.81;99.97
13705;BME280;6924;52.122;9.952;2023-03-21T00:16:16;100643.22;;;7.69;100.00
13705;BME280;6924;52.122;9.952;2023-03-21T00:18:44;100651.09;;;7.67;100.00
13705;BME280;6924;52.122;9.952;2023-03-21T00:21:14;100648.34;;;7.62;100.00
13705;BME280;6924;52.122;9.952;2023-03-21T00:23:41;100636.25;;;7.61;100.00
13705;BME280;6924;52.122;9.952;2023-03-21T00:26:07;100643.47;;;7.73;100.00
13705;BME280;6924;52.122;9.952;2023-03-21T00:28:34;100637.22;;;7.81;100.00
13705;BME280;6924;52.122;9.952;2023-03-21T00:31:03;100640.94;;;7.76;100.00
13705;BME280;6924;52.122;9.952;2023-03-21T00:33:30;100633.53;;;7.80;100.00
13705;BME280;6924;52.122;9.952;2023-03-21T00:35:57;100636.91;;;7.82;100.00
13705;BME280;6924;52.122;9.952;2023-03-21T00:38:23;100626.19;;;7.84;100.00
13705;BME280;6924;52.122;9.952;2023-03-21T00:40:50;100622.75;;;7.93;100.00
13705;BME280;6924;52.122;9.952;2023-03-21T00:43:17;100626.09;;;7.95;100.00
13705;BME280;6924;52.122;9.952;2023-03-21T00:45:48;100624.13;;;7.95;100.00
13705;BME280;6924;52.122;9.952;2023-03-21T00:48:17;100631.28;;;7.82;100.00
13705;BME280;6924;52.122;9.952;2023-03-21T00:50:44;100617.44;;;7.86;100.00
13705;BME280;6924;52.122;9.952;2023-03-21T00:53:12;100621.97;;;7.87;100.00
13705;BME280;6924;52.122;9.952;2023-03-21T00:55:39;100615.94;;;7.99;100.00
13705;BME280;6924;52.122;9.952;2023-03-21T00:58:05;100625.97;;;7.81;100.00
13705;BME280;6924;52.122;9.952;2023-03-21T01:00:32;100613.25;;;7.83;100.00
13705;BME280;6924;52.122;9.952;2023-03-21T01:03:01;100606.75;;;7.88;100.00
13705;BME280;6924;52.122;9.952;2023-03-21T01:05:33;100609.00;;;7.86;100.00
13705;BME280;6924;52.122;9.952;2023-03-21T01:08:17;100605.91;;;7.88;100.00
13705;BME280;6924;52.122;9.952;2023-03-21T01:10:47;100601.50;;;7.76;100.00
13705;BME280;6924;52.122;9.952;2023-03-21T01:13:15;100600.97;;;7.74;100.00
13705;BME280;6924;52.122;9.952;2023-03-21T01:15:44;100602.00;;;7.83;100.00
13705;BME280;6924;52.122;9.952;2023-03-21T01:18:11;100604.22;;;7.86;100.00
13705;BME280;6924;52.122;9.952;2023-03-21T01:20:41;100600.00;;;7.84;100.00
13705;BME280;6924;52.122;9.952;2023-03-21T01:23:08;100592.94;;;7.86;100.00
13705;BME280;6924;52.122;9.952;2023-03-21T01:25:35;100590.25;;;7.76;100.00
13705;BME280;6924;52.122;9.952;2023-03-21T01:28:01;100586.75;;;7.84;100.00
13705;BME280;6924;52.122;9.952;2023-03-21T01:30:28;100591.38;;;7.75;100.00
13705;BME280;6924;52.122;9.952;2023-03-21T01:32:54;100590.78;;;7.78;100.00
13705;BME280;6924;52.122;9.952;2023-03-21T01:35:21;100590.03;;;7.68;100.00
13705;BME280;6924;52.122;9.952;2023-03-21T01:37:49;100595.06;;;7.71;100.00
13705;BME280;6924;52.122;9.952;2023-03-21T01:40:17;100591.69;;;7.69;100.00
13705;BME280;6924;52.122;9.952;2023-03-21T01:42:44;100592.59;;;7.64;100.00
13705;BME280;6924;52.122;9.952;2023-03-21T01:48:11;100582.13;;;7.70;100.00
13705;BME280;6924;52.122;9.952;2023-03-21T01:50:37;100579.81;;;7.77;100.00
13705;BME280;6924;52.122;9.952;2023-03-21T01:53:06;100588.84;;;7.74;100.00
13705;BME280;6924;52.122;9.952;2023-03-21T01:55:33;100576.19;;;7.71;100.00
13705;BME280;6924;52.122;9.952;2023-03-21T01:58:01;100581.78;;;7.76;100.00
13705;BME280;6924;52.122;9.952;2023-03-21T02:00:30;100582.03;;;7.80;100.00
13705;BME280;6924;52.122;9.952;2023-03-21T02:02:58;100576.44;;;7.75;100.00
13705;BME280;6924;52.122;9.952;2023-03-21T02:05:32;100572.53;;;7.71;100.00
13705;BME280;6924;52.122;9.952;2023-03-21T02:08:02;100573.09;;;7.73;100.00
13705;BME280;6924;52.122;9.952;2023-03-21T02:10:31;100569.09;;;7.79;100.00
13705;BME280;6924;52.122;9.952;2023-03-21T02:13:00;100570.72;;;7.85;100.00
13705;BME280;6924;52.122;9.952;2023-03-21T02:15:34;100562.75;;;7.92;100.00
13705;BME280;6924;52.122;9.952;2023-03-21T02:18:04;100565.88;;;7.91;100.00
13705;BME280;6924;52.122;9.952;2023-03-21T02:20:50;100561.06;;;7.91;100.00
13705;BME280;6924;52.122;9.952;2023-03-21T02:26:41;100555.25;;;7.82;100.00
13705;BME280;6924;52.122;9.952;2023-03-21T02:29:27;100557.22;;;7.82;100.00
13705;BME280;6924;52.122;9.952;2023-03-21T02:32:04;100556.41;;;7.81;100.00
13705;BME280;6924;52.122;9.952;2023-03-21T02:35:12;100552.19;;;7.79;100.00
13705;BME280;6924;52.122;9.952;2023-03-21T02:37:48;100547.53;;;7.93;100.00
13705;BME280;6924;52.122;9.952;2023-03-21T02:40:22;100548.56;;;8.02;100.00
13705;BME280;6924;52.122;9.952;2023-03-21T02:42:55;100547.19;;;8.00;100.00
13705;BME280;6924;52.122;9.952;2023-03-21T02:45:28;100554.50;;;8.01;100.00
13705;BME280;6924;52.122;9.952;2023-03-21T02:48:00;100544.06;;;8.01;100.00
13705;BME280;6924;52.122;9.952;2023-03-21T02:50:32;100540.72;;;7.99;100.00
13705;BME280;6924;52.122;9.952;2023-03-21T02:53:03;100546.63;;;7.98;100.00
13705;BME280;6924;52.122;9.952;2023-03-21T02:55:33;100530.81;;;8.02;100.00
13705;BME280;6924;52.122;9.952;2023-03-21T02:58:02;100534.53;;;7.97;100.00
13705;BME280;6924;52.122;9.952;2023-03-21T03:00:31;100535.19;;;7.89;100.00
13705;BME280;6924;52.122;9.952;2023-03-21T03:02:59;100538.25;;;7.93;100.00
13705;BME280;6924;52.122;9.952;2023-03-21T03:05:27;100538.72;;;8.00;100.00
13705;BME280;6924;52.122;9.952;2023-03-21T03:08:08;100540.09;;;8.02;100.00
13705;BME280;6924;52.122;9.952;2023-03-21T03:10:49;100534.47;;;8.02;100.00
13705;BME280;6924;52.122;9.952;2023-03-21T03:13:29;100532.81;;;8.01;100.00
13705;BME280;6924;52.122;9.952;2023-03-21T03:16:10;100539.63;;;7.95;100.00
13705;BME280;6924;52.122;9.952;2023-03-21T03:18:48;100526.91;;;7.98;100.00
13705;BME280;6924;52.122;9.952;2023-03-21T03:21:20;100528.63;;;7.99;100.00
13705;BME280;6924;52.122;9.952;2023-03-21T03:23:51;100524.44;;;7.96;100.00
13705;BME280;6924;52.122;9.952;2023-03-21T03:26:22;100524.91;;;8.03;100.00
13705;BME280;6924;52.122;9.952;2023-03-21T03:28:52;100525.19;;;8.02;100.00
13705;BME280;6924;52.122;9.952;2023-03-21T03:31:23;100520.94;;;8.04;100.00
13705;BME280;6924;52.122;9.952;2023-03-21T03:33:52;100524.63;;;8.05;100.00
13705;BME280;6924;52.122;9.952;2023-03-21T03:36:23;100531.91;;;8.06;100.00
13705;BME280;6924;52.122;9.952;2023-03-21T03:38:54;100528.56;;;8.04;100.00
13705;BME280;6924;52.122;9.952;2023-03-21T03:41:24;100524.66;;;8.00;100.00
13705;BME280;6924;52.122;9.952;2023-03-21T03:43:54;100519.56;;;8.02;100.00
13705;BME280;6924;52.122;9.952;2023-03-21T03:46:27;100524.66;;;8.00;100.00
13705;BME280;6924;52.122;9.952;2023-03-21T03:48:59;100523.56;;;7.96;100.00
13705;BME280;6924;52.122;9.952;2023-03-21T03:51:31;100525.00;;;7.93;100.00
13705;BME280;6924;52.122;9.952;2023-03-21T03:54:02;100524.66;;;8.00;100.00
13705;BME280;6924;52.122;9.952;2023-03-21T03:56:31;100517.00;;;8.05;100.00
13705;BME280;6924;52.122;9.952;2023-03-21T03:59:00;100516.44;;;8.03;100.00
13705;BME280;6924;52.122;9.952;2023-03-21T04:01:28;100524.53;;;8.10;100.00
13705;BME280;6924;52.122;9.952;2023-03-21T04:03:55;100521.19;;;8.08;100.00
13705;BME280;6924;52.122;9.952;2023-03-21T04:06:21;100512.13;;;8.11;100.00
13705;BME280;6924;52.122;9.952;2023-03-21T04:08:48;100518.00;;;8.15;100.00
13705;BME280;6924;52.122;9.952;2023-03-21T04:11:16;100522.19;;;8.17;100.00
13705;BME280;6924;52.122;9.952;2023-03-21T04:13:42;100522.16;;;8.22;100.00
13705;BME280;6924;52.122;9.952;2023-03-21T04:16:10;100510.56;;;8.24;100.00
13705;BME280;6924;52.122;9.952;2023-03-21T04:18:37;100515.13;;;8.20;100.00
13705;BME280;6924;52.122;9.952;2023-03-21T04:21:07;100515.72;;;8.17;100.00
13705;BME280;6924;52.122;9.952;2023-03-21T04:23:33;100509.72;;;8.23;100.00
13705;BME280;6924;52.122;9.952;2023-03-21T04:26:01;100513.91;;;8.26;100.00
13705;BME280;6924;52.122;9.952;2023-03-21T04:28:29;100513.09;;;8.25;100.00
13705;BME280;6924;52.122;9.952;2023-03-21T04:30:55;100512.81;;;8.27;100.00
13705;BME280;6924;52.122;9.952;2023-03-21T04:33:22;100509.72;;;8.23;100.00
13705;BME280;6924;52.122;9.952;2023-03-21T04:35:50;100509.44;;;8.25;100.00
13705;BME280;6924;52.122;9.952;2023-03-21T04:38:20;100509.31;;;8.11;100.00
13705;BME280;6924;52.122;9.952;2023-03-21T04:40:47;100508.09;;;8.17;100.00
13705;BME280;6924;52.122;9.952;2023-03-21T04:43:13;100504.47;;;8.17;100.00
13705;BME280;6924;52.122;9.952;2023-03-21T04:45:41;100511.75;;;8.18;100.00
13705;BME280;6924;52.122;9.952;2023-03-21T04:48:07;100504.09;;;8.23;100.00
13705;BME280;6924;52.122;9.952;2023-03-21T04:50:34;100514.22;;;8.24;100.00
13705;BME280;6924;52.122;9.952;2023-03-21T04:53:00;100512.84;;;8.22;100.00
13705;BME280;6924;52.122;9.952;2023-03-21T04:55:27;100505.84;;;8.19;100.00
13705;BME280;6924;52.122;9.952;2023-03-21T04:57:56;100507.03;;;8.13;100.00
13705;BME280;6924;52.122;9.952;2023-03-21T05:00:22;100507.28;;;8.17;100.00
13705;BME280;6924;52.122;9.952;2023-03-21T05:02:51;100503.09;;;8.14;100.00
13705;BME280;6924;52.122;9.952;2023-03-21T05:05:17;100511.56;;;8.09;100.00
13705;BME280;6924;52.122;9.952;2023-03-21T05:07:44;100508.19;;;8.12;100.00
13705;BME280;6924;52.122;9.952;2023-03-21T05:10:10;100500.84;;;8.11;100.00
13705;BME280;6924;52.122;9.952;2023-03-21T05:12:37;100498.28;;;8.15;100.00
13705;BME280;6924;52.122;9.952;2023-03-21T05:15:05;100500.28;;;8.14;100.00
13705;BME280;6924;52.122;9.952;2023-03-21T05:17:31;100505.38;;;8.12;100.00
13705;BME280;6924;52.122;9.952;2023-03-21T05:19:59;100504.28;;;8.08;100.00
13705;BME280;6924;52.122;9.952;2023-03-21T05:22:25;100505.38;;;8.12;100.00
13705;BME280;6924;52.122;9.952;2023-03-21T05:24:53;100503.63;;;8.16;100.00
13705;BME280;6924;52.122;9.952;2023-03-21T05:27:21;100500.19;;;8.19;100.00
13705;BME280;6924;52.122;9.952;2023-03-21T05:30:00;100499.91;;;8.21;100.00
13705;BME280;6924;52.122;9.952;2023-03-21T05:32:27;100502.53;;;8.12;100.00
13705;BME280;6924;52.122;9.952;2023-03-21T05:34:53;100496.91;;;8.12;100.00
13705;BME280;6924;52.122;9.952;2023-03-21T05:37:21;100493.31;;;8.06;100.00
13705;BME280;6924;52.122;9.952;2023-03-21T05:39:48;100499.72;;;8.12;100.00
13705;BME280;6924;52.122;9.952;2023-03-21T05:42:15;100498.81;;;8.17;100.00
13705;BME280;6924;52.122;9.952;2023-03-21T05:44:42;100494.56;;;8.19;100.00
13705;BME280;6924;52.122;9.952;2023-03-21T05:47:10;100495.19;;;8.16;100.00
13705;BME280;6924;52.122;9.952;2023-03-21T05:49:37;100491.19;;;8.17;100.00
13705;BME280;6924;52.122;9.952;2023-03-21T05:52:04;100494.56;;;8.19;100.00
13705;BME280;6924;52.122;9.952;2023-03-21T05:54:31;100485.91;;;8.16;100.00
13705;BME280;6924;52.122;9.952;2023-03-21T05:56:58;100478.56;;;8.15;100.00
13705;BME280;6924;52.122;9.952;2023-03-21T05:59:25;100480.72;;;8.23;100.00
13705;BME280;6924;52.122;9.952;2023-03-21T06:01:51;100477.28;;;8.26;100.00
13705;BME280;6924;52.122;9.952;2023-03-21T06:04:18;100481.72;;;8.32;100.00
13705;BME280;6924;52.122;9.952;2023-03-21T06:06:44;100487.00;;;8.39;100.00
13705;BME280;6924;52.122;9.952;2023-03-21T06:09:10;100496.25;;;8.44;100.00
13705;BME280;6924;52.122;9.952;2023-03-21T06:11:43;100492.81;;;8.47;100.00
13705;BME280;6924;52.122;9.952;2023-03-21T06:14:11;100499.53;;;8.52;100.00
13705;BME280;6924;52.122;9.952;2023-03-21T06:16:37;100499.75;;;8.55;100.00
13705;BME280;6924;52.122;9.952;2023-03-21T06:19:04;100502.81;;;8.59;100.00
13705;BME280;6924;52.122;9.952;2023-03-21T06:21:30;100492.38;;;8.59;100.00
13705;BME280;6924;52.122;9.952;2023-03-21T06:23:57;100494.06;;;8.60;100.00
13705;BME280;6924;52.122;9.952;2023-03-21T06:26:23;100502.44;;;8.65;100.00
13705;BME280;6924;52.122;9.952;2023-03-21T06:28:51;100498.50;;;8.66;100.00
13705;BME280;6924;52.122;9.952;2023-03-21T06:31:19;100490.03;;;8.66;100.00
13705;BME280;6924;52.122;9.952;2023-03-21T06:33:46;100491.16;;;8.65;100.00
13705;BME280;6924;52.122;9.952;2023-03-21T06:36:12;100489.41;;;8.69;100.00
13705;BME280;6924;52.122;9.952;2023-03-21T06:38:39;100487.66;;;8.74;100.00
13705;BME280;6924;52.122;9.952;2023-03-21T06:41:06;100489.56;;;8.78;100.00
13705;BME280;6924;52.122;9.952;2023-03-21T06:43:33;100487.44;;;8.70;100.00
13705;BME280;6924;52.122;9.952;2023-03-21T06:46:01;100494.91;;;8.80;100.00
13705;BME280;6924;52.122;9.952;2023-03-21T06:48:27;100491.63;;;8.73;100.00
13705;BME280;6924;52.122;9.952;2023-03-21T06:50:54;100494.00;;;8.84;100.00
13705;BME280;6924;52.122;9.952;2023-03-21T06:53:22;100491.09;;;8.89;100.00
13705;BME280;6924;52.122;9.952;2023-03-21T06:55:52;100496.66;;;8.95;100.00
13705;BME280;6924;52.122;9.952;2023-03-21T06:58:19;100486.53;;;8.94;100.00
13705;BME280;6924;52.122;9.952;2023-03-21T07:00:46;100493.22;;;8.98;99.71
13705;BME280;6924;52.122;9.952;2023-03-21T07:03:14;100494.59;;;9.00;100.00
13705;BME280;6924;52.122;9.952;2023-03-21T07:05:41;100485.75;;;9.07;99.75
13705;BME280;6924;52.122;9.952;2023-03-21T07:08:08;100489.94;;;9.09;100.00
13705;BME280;6924;52.122;9.952;2023-03-21T07:10:37;100494.94;;;9.13;99.78
13705;BME280;6924;52.122;9.952;2023-03-21T07:13:04;100493.81;;;9.14;99.55
13705;BME280;6924;52.122;9.952;2023-03-21T07:15:31;100495.81;;;9.13;99.43
13705;BME280;6924;52.122;9.952;2023-03-21T07:17:58;100495.97;;;9.03;99.60
13705;BME280;6924;52.122;9.952;2023-03-21T07:20:26;100491.09;;;9.08;99.90
13705;BME280;6924;52.122;9.952;2023-03-21T07:22:53;100501.31;;;9.04;99.74
13705;BME280;6924;52.122;9.952;2023-03-21T07:25:19;100491.00;;;9.14;99.88
13705;BME280;6924;52.122;9.952;2023-03-21T07:27:45;100497.63;;;9.23;99.38
13705;BME280;6924;52.122;9.952;2023-03-21T07:30:13;100496.00;;;9.17;98.49
13705;BME280;6924;52.122;9.952;2023-03-21T07:32:40;100496.25;;;9.20;97.96
13705;BME280;6924;52.122;9.952;2023-03-21T07:35:07;100494.78;;;9.23;98.47
13705;BME280;6924;52.122;9.952;2023-03-21T07:37:35;100500.44;;;9.23;98.75
13705;BME280;6924;52.122;9.952;2023-03-21T07:40:02;100499.81;;;9.26;98.97
13705;BME280;6924;52.122;9.952;2023-03-21T07:42:33;100488.22;;;9.27;98.48
13705;BME280;6924;52.122;9.952;2023-03-21T07:45:00;100486.38;;;9.37;99.41
13705;BME280;6924;52.122;9.952;2023-03-21T07:47:29;100485.84;;;9.35;99.23
13705;BME280;6924;52.122;9.952;2023-03-21T07:49:55;100478.75;;;9.37;98.79
13705;BME280;6924;52.122;9.952;2023-03-21T07:52:22;100478.22;;;9.35;99.62
13705;BME280;6924;52.122;9.952;2023-03-21T07:54:50;100479.19;;;9.44;98.26
13705;BME280;6924;52.122;9.952;2023-03-21T07:57:16;100480.13;;;9.40;98.73
13705;BME280;6924;52.122;9.952;2023-03-21T07:59:43;100472.19;;;9.42;98.90
13705;BME280;6924;52.122;9.952;2023-03-21T08:02:12;100475.53;;;9.44;98.36
13705;BME280;6924;52.122;9.952;2023-03-21T08:04:39;100470.41;;;9.46;97.53
13705;BME280;6924;52.122;9.952;2023-03-21T08:07:05;100490.47;;;9.44;96.45
13705;BME280;6924;52.122;9.952;2023-03-21T08:09:32;100484.19;;;9.47;96.57
13705;BME280;6924;52.122;9.952;2023-03-21T08:11:59;100483.06;;;9.48;96.89
13705;BME280;6924;52.122;9.952;2023-03-21T08:14:26;100488.09;;;9.51;97.10
13705;BME280;6924;52.122;9.952;2023-03-21T08:16:52;100484.97;;;9.67;97.33
13705;BME280;6924;52.122;9.952;2023-03-21T08:19:18;100486.56;;;9.73;97.15
13705;BME280;6924;52.122;9.952;2023-03-21T08:21:46;100488.97;;;9.66;94.99
13705;BME280;6924;52.122;9.952;2023-03-21T08:24:12;100490.75;;;9.62;96.79
13705;BME280;6924;52.122;9.952;2023-03-21T08:26:38;100488.84;;;9.57;97.04
13705;BME280;6924;52.122;9.952;2023-03-21T08:29:06;100490.09;;;9.65;95.73
13705;BME280;6924;52.122;9.952;2023-03-21T08:31:33;100491.06;;;9.74;96.15
13705;BME280;6924;52.122;9.952;2023-03-21T08:33:59;100497.28;;;9.90;96.80
13705;BME280;6924;52.122;9.952;2023-03-21T08:36:25;100496.00;;;9.96;95.45
13705;BME280;6924;52.122;9.952;2023-03-21T08:38:52;100495.81;;;10.06;94.37
13705;BME280;6924;52.122;9.952;2023-03-21T08:41:21;100500.00;;;10.09;95.02
13705;BME280;6924;52.122;9.952;2023-03-21T08:43:49;100494.97;;;10.20;95.52
13705;BME280;6924;52.122;9.952;2023-03-21T08:46:17;100493.34;;;10.32;96.29
13705;BME280;6924;52.122;9.952;2023-03-21T08:48:44;100491.13;;;10.29;92.50
13705;BME280;6924;52.122;9.952;2023-03-21T08:51:10;100489.97;;;10.30;93.94
13705;BME280;6924;52.122;9.952;2023-03-21T08:53:36;100495.63;;;10.30;93.62
13705;BME280;6924;52.122;9.952;2023-03-21T08:56:03;100489.22;;;10.25;93.84
13705;BME280;6924;52.122;9.952;2023-03-21T08:58:30;100493.53;;;10.36;92.42
13705;BME280;6924;52.122;9.952;2023-03-21T09:00:56;100497.09;;;10.42;94.36
13705;BME280;6924;52.122;9.952;2023-03-21T09:03:24;100490.78;;;10.59;93.53
13705;BME280;6924;52.122;9.952;2023-03-21T09:05:52;100480.28;;;10.73;93.08
13705;BME280;6924;52.122;9.952;2023-03-21T09:08:19;100471.44;;;10.88;92.18
13705;BME280;6924;52.122;9.952;2023-03-21T09:10:47;100476.34;;;10.96;91.58
13705;BME280;6924;52.122;9.952;2023-03-21T09:13:13;100469.25;;;11.08;88.95
13705;BME280;6924;52.122;9.952;2023-03-21T09:15:40;100477.69;;;11.22;89.01
13705;BME280;6924;52.122;9.952;2023-03-21T09:18:07;100469.31;;;11.39;89.01
13705;BME280;6924;52.122;9.952;2023-03-21T09:20:41;100474.84;;;11.44;88.90
13705;BME280;6924;52.122;9.952;2023-03-21T09:23:08;100471.25;;;11.52;87.50
13705;BME280;6924;52.122;9.952;2023-03-21T09:25:36;100470.41;;;11.52;89.27
13705;BME280;6924;52.122;9.952;2023-03-21T09:28:03;100481.09;;;11.55;85.73
13705;BME280;6924;52.122;9.952;2023-03-21T09:30:31;100469.34;;;11.70;88.61
13705;BME280;6924;52.122;9.952;2023-03-21T09:32:58;100468.38;;;11.75;86.28
13705;BME280;6924;52.122;9.952;2023-03-21T09:35:25;100468.59;;;11.87;86.96
13705;BME280;6924;52.122;9.952;2023-03-21T09:37:54;100476.00;;;11.97;87.63
13705;BME280;6924;52.122;9.952;2023-03-21T09:40:30;100476.09;;;12.14;85.50
13705;BME280;6924;52.122;9.952;2023-03-21T09:43:12;100467.47;;;12.28;83.18
13705;BME280;6924;52.122;9.952;2023-03-21T09:45:46;100468.66;;;12.36;83.91
13705;BME280;6924;52.122;9.952;2023-03-21T09:48:20;100470.66;;;12.35;82.06
13705;BME280;6924;52.122;9.952;2023-03-21T09:50:56;100472.16;;;12.33;82.50
13705;BME280;6924;52.122;9.952;2023-03-21T09:53:28;100465.50;;;12.37;82.07
13705;BME280;6924;52.122;9.952;2023-03-21T09:55:58;100463.16;;;12.39;82.46
13705;BME280;6924;52.122;9.952;2023-03-21T09:58:29;100470.69;;;12.44;82.50
13705;BME280;6924;52.122;9.952;2023-03-21T10:01:01;100471.03;;;12.51;82.04
13705;BME280;6924;52.122;9.952;2023-03-21T10:03:31;100459.19;;;12.58;81.80
13705;BME280;6924;52.122;9.952;2023-03-21T10:06:02;100460.03;;;12.76;81.34
13705;BME280;6924;52.122;9.952;2023-03-21T10:08:35;100460.88;;;12.85;79.44
13705;BME280;6924;52.122;9.952;2023-03-21T10:11:05;100453.38;;;12.98;79.76
13705;BME280;6924;52.122;9.952;2023-03-21T10:13:41;100455.56;;;13.10;79.90
13705;BME280;6924;52.122;9.952;2023-03-21T10:16:12;100458.56;;;13.22;79.28
13705;BME280;6924;52.122;9.952;2023-03-21T10:18:41;100451.72;;;13.23;78.83
13705;BME280;6924;52.122;9.952;2023-03-21T10:21:14;100454.38;;;13.11;78.29
13705;BME280;6924;52.122;9.952;2023-03-21T10:23:44;100449.53;;;13.02;76.87
13705;BME280;6924;52.122;9.952;2023-03-21T10:26:10;100455.91;;;12.99;77.56
13705;BME280;6924;52.122;9.952;2023-03-21T10:28:39;100443.34;;;13.00;77.20
13705;BME280;6924;52.122;9.952;2023-03-21T10:31:09;100448.72;;;12.93;77.40
13705;BME280;6924;52.122;9.952;2023-03-21T10:33:42;100453.72;;;12.88;78.05
13705;BME280;6924;52.122;9.952;2023-03-21T10:36:12;100449.53;;;12.76;77.48
13705;BME280;6924;52.122;9.952;2023-03-21T10:38:46;100454.03;;;12.77;78.25
13705;BME280;6924;52.122;9.952;2023-03-21T10:41:13;100455.03;;;12.73;77.75
13705;BME280;6924;52.122;9.952;2023-03-21T10:43:40;100450.69;;;12.58;79.70
13705;BME280;6924;52.122;9.952;2023-03-21T10:46:11;100450.03;;;12.52;80.62
13705;BME280;6924;52.122;9.952;2023-03-21T10:48:39;100447.69;;;12.63;80.30
13705;BME280;6924;52.122;9.952;2023-03-21T10:51:14;100455.84;;;12.56;82.05
13705;BME280;6924;52.122;9.952;2023-03-21T10:53:50;100449.03;;;12.57;82.58
13705;BME280;6924;52.122;9.952;2023-03-21T10:56:17;100454.78;;;12.34;82.84
13705;BME280;6924;52.122;9.952;2023-03-21T10:58:45;100456.63;;;12.22;85.38
13705;BME280;6924;52.122;9.952;2023-03-21T11:01:15;100447.88;;;12.09;86.71
13705;BME280;6924;52.122;9.952;2023-03-21T11:03:54;100451.78;;;12.22;86.62
13705;BME280;6924;52.122;9.952;2023-03-21T11:06:26;100452.22;;;12.07;87.64
13705;BME280;6924;52.122;9.952;2023-03-21T11:08:59;100456.06;;;12.11;89.76
13705;BME280;6924;52.122;9.952;2023-03-21T11:11:27;100442.72;;;12.11;91.54
13705;BME280;6924;52.122;9.952;2023-03-21T11:13:58;100445.31;;;11.90;93.61
13705;BME280;6924;52.122;9.952;2023-03-21T11:16:30;100435.53;;;12.05;95.74
13705;BME280;6924;52.122;9.952;2023-03-21T11:19:00;100431.19;;;12.08;96.27
13705;BME280;6924;52.122;9.952;2023-03-21T11:21:27;100428.72;;;12.06;95.73
13705;BME280;6924;52.122;9.952;2023-03-21T11:24:02;100422.88;;;12.11;96.97
13705;BME280;6924;52.122;9.952;2023-03-21T11:26:31;100423.56;;;12.08;96.03
13705;BME280;6924;52.122;9.952;2023-03-21T11:29:10;100419.25;;;12.19;96.00
13705;BME280;6924;52.122;9.952;2023-03-21T11:31:40;100422.44;;;12.27;95.89
13705;BME280;6924;52.122;9.952;2023-03-21T11:34:08;100418.91;;;12.30;95.62
13705;BME280;6924;52.122;9.952;2023-03-21T11:36:36;100420.28;;;12.41;95.89
13705;BME280;6924;52.122;9.952;2023-03-21T11:39:26;100419.97;;;12.51;95.93
13705;BME280;6924;52.122;9.952;2023-03-21T11:41:54;100422.97;;;12.55;96.13
13705;BME280;6924;52.122;9.952;2023-03-21T11:44:40;100412.47;;;12.64;96.18
13705;BME280;6924;52.122;9.952;2023-03-21T11:47:09;100410.78;;;12.72;94.08
13705;BME280;6924;52.122;9.952;2023-03-21T11:49:36;100404.94;;;12.51;95.39
13705;BME280;6924;52.122;9.952;2023-03-21T11:52:12;100405.09;;;12.37;93.02
13705;BME280;6924;52.122;9.952;2023-03-21T11:54:57;100408.91;;;12.15;93.36
13705;BME280;6924;52.122;9.952;2023-03-21T11:57:30;100400.00;;;12.08;95.06
13705;BME280;6924;52.122;9.952;2023-03-21T12:00:09;100398.03;;;12.08;97.67
13705;BME280;6924;52.122;9.952;2023-03-21T12:03:03;100391.91;;;12.24;98.86
13705;BME280;6924;52.122;9.952;2023-03-21T12:05:38;100385.38;;;12.23;98.96
13705;BME280;6924;52.122;9.952;2023-03-21T12:08:21;100388.22;;;12.23;98.46
13705;BME280;6924;52.122;9.952;2023-03-21T12:10:57;100384.06;;;12.29;98.62
13705;BME280;6924;52.122;9.952;2023-03-21T12:13:39;100378.91;;;12.40;98.37
13705;BME280;6924;52.122;9.952;2023-03-21T12:16:19;100381.53;;;12.28;97.96
13705;BME280;6924;52.122;9.952;2023-03-21T12:21:55;100382.06;;;12.47;98.70
13705;BME280;6924;52.122;9.952;2023-03-21T12:24:30;100373.75;;;12.51;98.08
13705;BME280;6924;52.122;9.952;2023-03-21T12:27:03;100378.59;;;12.50;98.46
13705;BME280;6924;52.122;9.952;2023-03-21T12:29:52;100370.75;;;12.56;98.66
13705;BME280;6924;52.122;9.952;2023-03-21T12:32:33;100374.06;;;12.58;98.37
13705;BME280;6924;52.122;9.952;2023-03-21T12:35:30;100365.75;;;12.61;98.23
13705;BME280;6924;52.122;9.952;2023-03-21T12:38:05;100362.03;;;12.61;97.59
13705;BME280;6924;52.122;9.952;2023-03-21T12:40:47;100362.03;;;12.61;98.24
13705;BME280;6924;52.122;9.952;2023-03-21T12:43:26;100356.06;;;12.63;97.53
13705;BME280;6924;52.122;9.952;2023-03-21T12:45:57;100365.25;;;12.68;98.28
13705;BME280;6924;52.122;9.952;2023-03-21T12:48:32;100356.06;;;12.71;98.44
13705;BME280;6924;52.122;9.952;2023-03-21T12:51:04;100361.72;;;12.63;99.83
13705;BME280;6924;52.122;9.952;2023-03-21T12:53:45;100366.41;;;12.67;100.00
13705;BME280;6924;52.122;9.952;2023-03-21T12:56:17;100356.06;;;12.63;98.87
13705;BME280;6924;52.122;9.952;2023-03-21T12:58:49;100354.53;;;12.48;98.72
13705;BME280;6924;52.122;9.952;2023-03-21T13:01:18;100356.03;;;12.45;98.64
13705;BME280;6924;52.122;9.952;2023-03-21T13:03:49;100357.22;;;12.53;98.44
13705;BME280;6924;52.122;9.952;2023-03-21T13:06:19;100346.69;;;12.45;99.01
13705;BME280;6924;52.122;9.952;2023-03-21T13:08:51;100345.69;;;12.49;99.20
13705;BME280;6924;52.122;9.952;2023-03-21T13:11:22;100342.53;;;12.42;98.80
13705;BME280;6924;52.122;9.952;2023-03-21T13:13:55;100332.84;;;12.43;99.64
13705;BME280;6924;52.122;9.952;2023-03-21T13:16:27;100335.34;;;12.45;100.00
13705;BME280;6924;52.122;9.952;2023-03-21T13:19:03;100330.50;;;12.45;100.00
13705;BME280;6924;52.122;9.952;2023-03-21T13:21:39;100324.00;;;12.45;100.00
13705;BME280;6924;52.122;9.952;2023-03-21T13:24:18;100333.84;;;12.47;100.00
13705;BME280;6924;52.122;9.952;2023-03-21T13:26:57;100329.00;;;12.48;100.00